sensor_id;sensor_type;location;lat;lon;timestamp;pressure;altitude;pressure_sealevel;temperature;humidity
73453;BME280;61687;56.232;43.854;2023-07-09T00:00:37;100258.69;;;21.08;80.99
73453;BME280;61687;56.232;43.854;2023-07-09T00:03:02;100261.34;;;21.11;81.00
73453;BME280;61687;56.232;43.854;2023-07-09T00:05:28;100260.84;;;21.16;80.89
73453;BME280;61687;56.232;43.854;2023-07-09T00:07:54;100267.41;;;21.23;80.63
73453;BME280;61687;56.232;43.854;2023-07-09T00:10:20;100267.19;;;21.30;80.34
73453;BME280;61687;56.232;43.854;2023-07-09T00:12:47;100255.06;;;21.37;80.07
73453;BME280;61687;56.232;43.854;2023-07-09T00:15:14;100246.50;;;21.44;79.88
73453;BME280;61687;56.232;43.854;2023-07-09T00:17:44;100250.72;;;21.49;79.65
73453;BME280;61687;56.232;43.854;2023-07-09T00:20:15;100258.19;;;21.52;79.50
73453;BME280;61687;56.232;43.854;2023-07-09T00:22:42;100266.34;;;21.59;79.40
73453;BME280;61687;56.232;43.854;2023-07-09T00:25:10;100249.16;;;21.61;79.41
73453;BME280;61687;56.232;43.854;2023-07-09T00:27:42;100247.50;;;21.63;79.49
73453;BME280;61687;56.232;43.854;2023-07-09T00:30:15;100253.09;;;21.63;79.50
73453;BME280;61687;56.232;43.854;2023-07-09T00:32:41;100258.00;;;21.59;79.59
73453;BME280;61687;56.232;43.854;2023-07-09T00:35:09;100254.63;;;21.51;80.13
73453;BME280;61687;56.232;43.854;2023-07-09T00:37:37;100260.31;;;21.48;80.21
73453;BME280;61687;56.232;43.854;2023-07-09T00:40:04;100257.28;;;21.42;80.22
73453;BME280;61687;56.232;43.854;2023-07-09T00:42:30;100254.50;;;21.42;80.61
73453;BME280;61687;56.232;43.854;2023-07-09T00:44:56;100258.66;;;21.37;80.91
73453;BME280;61687;56.232;43.854;2023-07-09T00:47:38;100264.56;;;21.39;80.64
73453;BME280;61687;56.232;43.854;2023-07-09T00:50:11;100265.56;;;21.45;80.69
73453;BME280;61687;56.232;43.854;2023-07-09T00:52:49;100247.03;;;21.52;80.39
73453;BME280;61687;56.232;43.854;2023-07-09T00:55:19;100237.81;;;21.55;79.93
73453;BME280;61687;56.232;43.854;2023-07-09T00:57:49;100248.06;;;21.58;80.08
73453;BME280;61687;56.232;43.854;2023-07-09T01:00:25;100253.31;;;21.56;80.07
73453;BME280;61687;56.232;43.854;2023-07-09T01:02:53;100253.41;;;21.52;79.75
73453;BME280;61687;56.232;43.854;2023-07-09T01:05:19;100263.78;;;21.52;79.79
73453;BME280;61687;56.232;43.854;2023-07-09T01:07:46;100266.88;;;21.41;79.98
73453;BME280;61687;56.232;43.854;2023-07-09T01:10:15;100263.06;;;21.22;80.73
73453;BME280;61687;56.232;43.854;2023-07-09T01:12:44;100269.53;;;21.19;80.72
73453;BME280;61687;56.232;43.854;2023-07-09T01:15:11;100285.38;;;21.22;80.57
73453;BME280;61687;56.232;43.854;2023-07-09T01:17:37;100299.41;;;21.18;80.55
73453;BME280;61687;56.232;43.854;2023-07-09T01:20:03;100306.00;;;21.24;80.33
73453;BME280;61687;56.232;43.854;2023-07-09T01:22:29;100304.91;;;21.35;80.34
73453;BME280;61687;56.232;43.854;2023-07-09T01:25:04;100315.84;;;21.42;80.11
73453;BME280;61687;56.232;43.854;2023-07-09T01:27:36;100319.19;;;21.50;79.81
73453;BME280;61687;56.232;43.854;2023-07-09T01:30:07;100322.66;;;21.54;79.82
73453;BME280;61687;56.232;43.854;2023-07-09T01:32:33;100326.56;;;21.56;79.91
73453;BME280;61687;56.232;43.854;2023-07-09T01:35:03;100338.88;;;21.59;79.99
73453;BME280;61687;56.232;43.854;2023-07-09T01:37:37;100335.19;;;21.62;79.94
73453;BME280;61687;56.232;43.854;2023-07-09T01:40:04;100339.91;;;21.65;79.77
73453;BME280;61687;56.232;43.854;2023-07-09T01:42:32;100335.44;;;21.68;79.94
73453;BME280;61687;56.232;43.854;2023-07-09T01:44:58;100327.09;;;21.68;79.66
73453;BME280;61687;56.232;43.854;2023-07-09T01:47:24;100302.75;;;21.68;79.94
73453;BME280;61687;56.232;43.854;2023-07-09T01:49:51;100288.38;;;21.70;79.69
73453;BME280;61687;56.232;43.854;2023-07-09T01:52:24;100295.03;;;21.72;79.85
73453;BME280;61687;56.232;43.854;2023-07-09T01:54:50;100286.34;;;21.70;79.67
73453;BME280;61687;56.232;43.854;2023-07-09T01:57:21;100305.09;;;21.70;79.49
73453;BME280;61687;56.232;43.854;2023-07-09T01:59:51;100308.66;;;21.70;79.42
73453;BME280;61687;56.232;43.854;2023-07-09T02:02:19;100307.56;;;21.68;79.50
73453;BME280;61687;56.232;43.854;2023-07-09T02:04:50;100299.25;;;21.64;79.69
73453;BME280;61687;56.232;43.854;2023-07-09T02:07:18;100296.56;;;21.61;79.49
73453;BME280;61687;56.232;43.854;2023-07-09T02:09:44;100284.31;;;21.58;79.68
73453;BME280;61687;56.232;43.854;2023-07-09T02:12:11;100291.56;;;21.55;79.82
73453;BME280;61687;56.232;43.854;2023-07-09T02:14:38;100290.78;;;21.55;80.16
73453;BME280;61687;56.232;43.854;2023-07-09T02:17:04;100278.41;;;21.56;79.90
73453;BME280;61687;56.232;43.854;2023-07-09T02:19:30;100274.81;;;21.55;80.16
73453;BME280;61687;56.232;43.854;2023-07-09T02:21:57;100266.78;;;21.57;80.14
73453;BME280;61687;56.232;43.854;2023-07-09T02:24:23;100270.72;;;21.60;79.88
73453;BME280;61687;56.232;43.854;2023-07-09T02:26:51;100266.78;;;21.57;80.14
73453;BME280;61687;56.232;43.854;2023-07-09T02:29:17;100267.13;;;21.59;80.15
73453;BME280;61687;56.232;43.854;2023-07-09T02:31:44;100269.81;;;21.63;79.92
73453;BME280;61687;56.232;43.854;2023-07-09T02:34:10;100260.66;;;21.63;79.66
73453;BME280;61687;56.232;43.854;2023-07-09T02:36:36;100266.69;;;21.61;79.76
73453;BME280;61687;56.232;43.854;2023-07-09T02:39:02;100265.13;;;21.60;80.13
73453;BME280;61687;56.232;43.854;2023-07-09T02:41:28;100247.50;;;21.63;79.73
73453;BME280;61687;56.232;43.854;2023-07-09T02:43:54;100241.06;;;21.66;79.83
73453;BME280;61687;56.232;43.854;2023-07-09T02:46:20;100237.38;;;21.69;79.35
73453;BME280;61687;56.232;43.854;2023-07-09T02:48:45;100238.16;;;21.70;79.60
73453;BME280;61687;56.232;43.854;2023-07-09T02:51:11;100236.72;;;21.65;79.61
73453;BME280;61687;56.232;43.854;2023-07-09T02:53:37;100230.53;;;21.44;80.39
73453;BME280;61687;56.232;43.854;2023-07-09T02:56:03;100221.75;;;21.46;80.44
73453;BME280;61687;56.232;43.854;2023-07-09T02:58:29;100217.16;;;21.39;80.69
73453;BME280;61687;56.232;43.854;2023-07-09T03:00:54;100214.81;;;21.38;80.75
73453;BME280;61687;56.232;43.854;2023-07-09T03:03:20;100221.28;;;21.35;80.67
73453;BME280;61687;56.232;43.854;2023-07-09T03:05:47;100221.50;;;21.27;81.16
73453;BME280;61687;56.232;43.854;2023-07-09T03:08:13;100231.75;;;21.18;81.40
73453;BME280;61687;56.232;43.854;2023-07-09T03:10:41;100225.72;;;21.19;81.30
73453;BME280;61687;56.232;43.854;2023-07-09T03:13:07;100225.84;;;21.15;81.27
73453;BME280;61687;56.232;43.854;2023-07-09T03:15:32;100230.84;;;21.08;81.70
73453;BME280;61687;56.232;43.854;2023-07-09T03:17:58;100226.59;;;21.16;81.42
73453;BME280;61687;56.232;43.854;2023-07-09T03:20:24;100228.97;;;21.30;81.06
73453;BME280;61687;56.232;43.854;2023-07-09T03:22:50;100221.19;;;21.38;80.85
73453;BME280;61687;56.232;43.854;2023-07-09T03:25:16;100231.44;;;21.41;80.60
73453;BME280;61687;56.232;43.854;2023-07-09T03:27:42;100221.16;;;21.25;80.91
73453;BME280;61687;56.232;43.854;2023-07-09T03:30:08;100220.38;;;21.25;80.91
73453;BME280;61687;56.232;43.854;2023-07-09T03:32:34;100221.63;;;21.37;80.39
73453;BME280;61687;56.232;43.854;2023-07-09T03:35:00;100229.66;;;21.48;80.06
73453;BME280;61687;56.232;43.854;2023-07-09T03:37:25;100227.09;;;21.53;79.80
73453;BME280;61687;56.232;43.854;2023-07-09T03:39:51;100232.91;;;21.59;79.60
73453;BME280;61687;56.232;43.854;2023-07-09T03:42:17;100221.06;;;21.42;79.96
73453;BME280;61687;56.232;43.854;2023-07-09T03:44:43;100212.34;;;21.40;80.40
73453;BME280;61687;56.232;43.854;2023-07-09T03:47:09;100218.63;;;21.44;80.16
73453;BME280;61687;56.232;43.854;2023-07-09T03:49:34;100214.47;;;21.49;79.66
73453;BME280;61687;56.232;43.854;2023-07-09T03:52:00;100206.56;;;21.47;79.87
73453;BME280;61687;56.232;43.854;2023-07-09T03:54:27;100206.00;;;21.52;79.62
73453;BME280;61687;56.232;43.854;2023-07-09T03:56:53;100201.56;;;21.55;79.42
73453;BME280;61687;56.232;43.854;2023-07-09T03:59:18;100200.47;;;21.65;79.50
73453;BME280;61687;56.232;43.854;2023-07-09T04:01:44;100206.59;;;21.73;78.97
73453;BME280;61687;56.232;43.854;2023-07-09T04:04:14;100211.50;;;21.69;79.18
73453;BME280;61687;56.232;43.854;2023-07-09T04:06:40;100212.16;;;21.60;79.49
73453;BME280;61687;56.232;43.854;2023-07-09T04:09:06;100214.38;;;21.39;79.43
73453;BME280;61687;56.232;43.854;2023-07-09T04:11:32;100215.69;;;21.35;80.13
73453;BME280;61687;56.232;43.854;2023-07-09T04:13:58;100207.56;;;21.40;80.07
73453;BME280;61687;56.232;43.854;2023-07-09T04:16:24;100195.75;;;21.49;79.79
73453;BME280;61687;56.232;43.854;2023-07-09T04:18:50;100198.31;;;21.56;79.81
73453;BME280;61687;56.232;43.854;2023-07-09T04:21:15;100192.97;;;21.62;79.47
73453;BME280;61687;56.232;43.854;2023-07-09T04:23:41;100198.22;;;21.47;79.64
73453;BME280;61687;56.232;43.854;2023-07-09T04:26:15;100190.19;;;21.23;80.09
73453;BME280;61687;56.232;43.854;2023-07-09T04:28:40;100191.28;;;21.13;80.71
73453;BME280;61687;56.232;43.854;2023-07-09T04:31:06;100187.34;;;21.10;80.77
73453;BME280;61687;56.232;43.854;2023-07-09T04:33:32;100196.84;;;21.26;80.30
73453;BME280;61687;56.232;43.854;2023-07-09T04:36:01;100183.59;;;21.43;79.97
73453;BME280;61687;56.232;43.854;2023-07-09T04:38:27;100194.75;;;21.56;79.27
73453;BME280;61687;56.232;43.854;2023-07-09T04:40:52;100194.19;;;21.61;79.03
73453;BME280;61687;56.232;43.854;2023-07-09T04:43:18;100191.50;;;21.44;79.13
73453;BME280;61687;56.232;43.854;2023-07-09T04:45:44;100186.03;;;21.54;79.22
73453;BME280;61687;56.232;43.854;2023-07-09T04:48:09;100186.25;;;21.59;79.02
73453;BME280;61687;56.232;43.854;2023-07-09T04:50:35;100181.00;;;21.62;78.77
73453;BME280;61687;56.232;43.854;2023-07-09T04:53:01;100185.41;;;21.76;78.52
73453;BME280;61687;56.232;43.854;2023-07-09T04:55:27;100183.38;;;21.63;78.25
73453;BME280;61687;56.232;43.854;2023-07-09T04:57:53;100189.84;;;21.60;78.06
73453;BME280;61687;56.232;43.854;2023-07-09T05:00:18;100183.03;;;21.48;78.38
73453;BME280;61687;56.232;43.854;2023-07-09T05:02:44;100178.22;;;21.62;78.22
73453;BME280;61687;56.232;43.854;2023-07-09T05:05:10;100177.56;;;21.83;77.65
73453;BME280;61687;56.232;43.854;2023-07-09T05:07:38;100181.91;;;21.97;76.90
73453;BME280;61687;56.232;43.854;2023-07-09T05:10:05;100171.59;;;22.07;76.43
73453;BME280;61687;56.232;43.854;2023-07-09T05:12:31;100168.09;;;22.16;76.07
73453;BME280;61687;56.232;43.854;2023-07-09T05:14:57;100161.53;;;22.10;76.81
73453;BME280;61687;56.232;43.854;2023-07-09T05:17:23;100165.78;;;22.14;76.46
73453;BME280;61687;56.232;43.854;2023-07-09T05:19:50;100164.41;;;22.19;76.10
73453;BME280;61687;56.232;43.854;2023-07-09T05:22:16;100166.47;;;22.06;76.72
73453;BME280;61687;56.232;43.854;2023-07-09T05:24:41;100165.56;;;22.09;76.92
73453;BME280;61687;56.232;43.854;2023-07-09T05:27:08;100158.25;;;21.89;77.54
73453;BME280;61687;56.232;43.854;2023-07-09T05:29:34;100162.38;;;21.97;77.21
73453;BME280;61687;56.232;43.854;2023-07-09T05:32:00;100160.09;;;22.05;76.91
73453;BME280;61687;56.232;43.854;2023-07-09T05:34:25;100159.66;;;22.07;76.75
73453;BME280;61687;56.232;43.854;2023-07-09T05:36:51;100160.94;;;22.15;76.66
73453;BME280;61687;56.232;43.854;2023-07-09T05:39:17;100163.22;;;22.07;76.45
73453;BME280;61687;56.232;43.854;2023-07-09T05:41:43;100163.56;;;22.09;76.13
73453;BME280;61687;56.232;43.854;2023-07-09T05:44:09;100167.75;;;22.14;75.91
73453;BME280;61687;56.232;43.854;2023-07-09T05:46:36;100175.00;;;22.24;75.71
73453;BME280;61687;56.232;43.854;2023-07-09T05:49:04;100180.31;;;22.32;75.58
73453;BME280;61687;56.232;43.854;2023-07-09T05:51:30;100179.09;;;22.33;75.46
73453;BME280;61687;56.232;43.854;2023-07-09T05:53:55;100180.53;;;22.37;75.58
73453;BME280;61687;56.232;43.854;2023-07-09T05:56:21;100178.38;;;22.19;75.69
73453;BME280;61687;56.232;43.854;2023-07-09T05:58:47;100183.84;;;22.10;76.27
73453;BME280;61687;56.232;43.854;2023-07-09T06:01:13;100178.81;;;22.18;76.06
73453;BME280;61687;56.232;43.854;2023-07-09T06:03:39;100178.81;;;22.18;75.75
73453;BME280;61687;56.232;43.854;2023-07-09T06:06:05;100183.91;;;21.97;76.42
73453;BME280;61687;56.232;43.854;2023-07-09T06:08:32;100184.00;;;21.93;76.76
73453;BME280;61687;56.232;43.854;2023-07-09T06:11:01;100178.19;;;22.00;76.76
73453;BME280;61687;56.232;43.854;2023-07-09T06:13:29;100188.53;;;22.13;76.33
73453;BME280;61687;56.232;43.854;2023-07-09T06:15:56;100191.75;;;22.24;76.26
73453;BME280;61687;56.232;43.854;2023-07-09T06:18:24;100185.00;;;22.35;75.83
73453;BME280;61687;56.232;43.854;2023-07-09T06:20:52;100195.72;;;22.36;75.29
73453;BME280;61687;56.232;43.854;2023-07-09T06:23:19;100200.97;;;22.34;75.28
73453;BME280;61687;56.232;43.854;2023-07-09T06:25:45;100196.25;;;22.44;75.45
73453;BME280;61687;56.232;43.854;2023-07-09T06:28:15;100196.81;;;22.52;75.44
73453;BME280;61687;56.232;43.854;2023-07-09T06:30:41;100194.72;;;22.65;75.08
73453;BME280;61687;56.232;43.854;2023-07-09T06:33:07;100204.47;;;22.83;74.41
73453;BME280;61687;56.232;43.854;2023-07-09T06:35:33;100197.31;;;23.04;74.13
73453;BME280;61687;56.232;43.854;2023-07-09T06:37:58;100200.19;;;23.23;73.37
73453;BME280;61687;56.232;43.854;2023-07-09T06:40:24;100209.47;;;23.42;72.29
73453;BME280;61687;56.232;43.854;2023-07-09T06:42:50;100210.91;;;23.47;71.12
73453;BME280;61687;56.232;43.854;2023-07-09T06:45:24;100210.25;;;23.42;70.87
73453;BME280;61687;56.232;43.854;2023-07-09T06:47:50;100204.66;;;23.42;70.93
73453;BME280;61687;56.232;43.854;2023-07-09T06:50:16;100209.97;;;23.50;71.10
73453;BME280;61687;56.232;43.854;2023-07-09T06:52:42;100212.16;;;23.55;71.38
73453;BME280;61687;56.232;43.854;2023-07-09T06:55:08;100218.38;;;23.50;71.16
73453;BME280;61687;56.232;43.854;2023-07-09T06:57:33;100213.34;;;23.44;71.13
73453;BME280;61687;56.232;43.854;2023-07-09T06:59:59;100207.41;;;23.11;71.41
73453;BME280;61687;56.232;43.854;2023-07-09T07:02:25;100207.81;;;23.00;72.00
73453;BME280;61687;56.232;43.854;2023-07-09T07:04:51;100205.34;;;23.02;72.30
73453;BME280;61687;56.232;43.854;2023-07-09T07:07:16;100203.44;;;22.90;71.24
73453;BME280;61687;56.232;43.854;2023-07-09T07:09:42;100201.56;;;22.86;71.63
73453;BME280;61687;56.232;43.854;2023-07-09T07:12:08;100199.53;;;22.87;71.58
73453;BME280;61687;56.232;43.854;2023-07-09T07:14:34;100199.31;;;22.81;71.52
73453;BME280;61687;56.232;43.854;2023-07-09T07:17:00;100190.38;;;22.86;71.67
73453;BME280;61687;56.232;43.854;2023-07-09T07:19:26;100185.75;;;22.70;72.18
73453;BME280;61687;56.232;43.854;2023-07-09T07:21:52;100184.88;;;22.73;72.53
73453;BME280;61687;56.232;43.854;2023-07-09T07:24:18;100188.75;;;22.54;73.31
73453;BME280;61687;56.232;43.854;2023-07-09T07:26:44;100185.53;;;22.42;73.93
73453;BME280;61687;56.232;43.854;2023-07-09T07:29:10;100193.31;;;22.25;74.74
73453;BME280;61687;56.232;43.854;2023-07-09T07:31:35;100180.25;;;22.22;75.05
73453;BME280;61687;56.232;43.854;2023-07-09T07:34:01;100179.13;;;22.20;75.01
73453;BME280;61687;56.232;43.854;2023-07-09T07:36:27;100189.44;;;22.10;75.52
73453;BME280;61687;56.232;43.854;2023-07-09T07:38:53;100180.84;;;22.04;75.43
73453;BME280;61687;56.232;43.854;2023-07-09T07:41:18;100180.75;;;22.08;75.56
73453;BME280;61687;56.232;43.854;2023-07-09T07:43:44;100184.97;;;22.12;75.80
73453;BME280;61687;56.232;43.854;2023-07-09T07:46:10;100183.75;;;22.13;75.79
73453;BME280;61687;56.232;43.854;2023-07-09T07:48:35;100178.16;;;22.13;75.59
73453;BME280;61687;56.232;43.854;2023-07-09T07:51:02;100184.50;;;22.14;75.42
73453;BME280;61687;56.232;43.854;2023-07-09T07:53:32;100194.25;;;22.09;75.83
73453;BME280;61687;56.232;43.854;2023-07-09T07:55:58;100195.38;;;21.99;75.93
73453;BME280;61687;56.232;43.854;2023-07-09T07:58:24;100200.53;;;22.00;76.23
73453;BME280;61687;56.232;43.854;2023-07-09T08:00:54;100199.63;;;22.04;76.28
73453;BME280;61687;56.232;43.854;2023-07-09T08:03:20;100198.63;;;21.97;76.41
73453;BME280;61687;56.232;43.854;2023-07-09T08:05:49;100202.22;;;21.85;76.86
73453;BME280;61687;56.232;43.854;2023-07-09T08:08:15;100199.44;;;21.85;77.01
73453;BME280;61687;56.232;43.854;2023-07-09T08:10:41;100194.53;;;21.76;77.17
73453;BME280;61687;56.232;43.854;2023-07-09T08:13:07;100197.22;;;21.80;77.40
73453;BME280;61687;56.232;43.854;2023-07-09T08:15:34;100192.38;;;21.93;77.05
73453;BME280;61687;56.232;43.854;2023-07-09T08:18:00;100197.03;;;22.09;76.56
73453;BME280;61687;56.232;43.854;2023-07-09T08:20:26;100191.41;;;22.22;76.43
73453;BME280;61687;56.232;43.854;2023-07-09T08:22:52;100196.75;;;22.29;76.09
73453;BME280;61687;56.232;43.854;2023-07-09T08:25:18;100192.03;;;22.39;75.91
73453;BME280;61687;56.232;43.854;2023-07-09T08:27:44;100189.78;;;22.47;75.83
73453;BME280;61687;56.232;43.854;2023-07-09T08:30:10;100180.25;;;22.44;76.00
73453;BME280;61687;56.232;43.854;2023-07-09T08:32:36;100183.41;;;22.47;76.11
73453;BME280;61687;56.232;43.854;2023-07-09T08:35:02;100184.53;;;22.49;76.16
73453;BME280;61687;56.232;43.854;2023-07-09T08:37:29;100188.75;;;22.54;nan
73453;BME280;61687;56.232;43.854;2023-07-09T08:39:55;100183.94;;;22.54;75.80
73453;BME280;61687;56.232;43.854;2023-07-09T08:42:29;100183.28;;;22.50;75.97
73453;BME280;61687;56.232;43.854;2023-07-09T08:48:02;100179.94;;;22.42;75.90
73453;BME280;61687;56.232;43.854;2023-07-09T08:50:36;100186.75;;;22.41;75.92
73453;BME280;61687;56.232;43.854;2023-07-09T08:53:05;100183.66;;;22.39;76.19
73453;BME280;61687;56.232;43.854;2023-07-09T08:55:34;100176.56;;;22.25;76.56
73453;BME280;61687;56.232;43.854;2023-07-09T08:58:15;100173.03;;;22.12;77.33
73453;BME280;61687;56.232;43.854;2023-07-09T09:03:29;100168.81;;;22.07;77.65
73453;BME280;61687;56.232;43.854;2023-07-09T09:05:56;100163.22;;;22.07;77.84
73453;BME280;61687;56.232;43.854;2023-07-09T09:08:39;100164.53;;;22.15;77.87
73453;BME280;61687;56.232;43.854;2023-07-09T09:13:45;100160.25;;;22.24;77.75
73453;BME280;61687;56.232;43.854;2023-07-09T09:18:49;100160.63;;;22.13;77.63
73453;BME280;61687;56.232;43.854;2023-07-09T09:21:17;100168.66;;;22.11;77.79
73453;BME280;61687;56.232;43.854;2023-07-09T09:23:52;100165.66;;;22.05;78.04
73453;BME280;61687;56.232;43.854;2023-07-09T09:26:38;100163.34;;;22.04;78.25
73453;BME280;61687;56.232;43.854;2023-07-09T09:29:16;100168.38;;;21.96;77.99
73453;BME280;61687;56.232;43.854;2023-07-09T09:31:51;100162.00;;;21.95;77.82
73453;BME280;61687;56.232;43.854;2023-07-09T09:34:28;100168.38;;;21.96;77.94
73453;BME280;61687;56.232;43.854;2023-07-09T09:36:55;100173.31;;;21.92;77.84
73453;BME280;61687;56.232;43.854;2023-07-09T09:39:25;100166.28;;;21.87;77.91
73453;BME280;61687;56.232;43.854;2023-07-09T09:41:55;100165.97;;;21.85;78.07
73453;BME280;61687;56.232;43.854;2023-07-09T09:44:28;100168.84;;;21.81;78.33
73453;BME280;61687;56.232;43.854;2023-07-09T09:46:56;100162.50;;;21.81;78.35
73453;BME280;61687;56.232;43.854;2023-07-09T09:49:23;100164.41;;;21.84;78.73
73453;BME280;61687;56.232;43.854;2023-07-09T09:51:49;100158.25;;;21.89;78.47
73453;BME280;61687;56.232;43.854;2023-07-09T09:54:24;100155.00;;;21.91;78.72
73453;BME280;61687;56.232;43.854;2023-07-09T09:56:53;100146.06;;;21.96;78.67
73453;BME280;61687;56.232;43.854;2023-07-09T09:59:21;100144.13;;;22.06;78.59
73453;BME280;61687;56.232;43.854;2023-07-09T10:01:57;100138.50;;;22.19;78.20
73453;BME280;61687;56.232;43.854;2023-07-09T10:04:23;100139.63;;;22.21;77.74
73453;BME280;61687;56.232;43.854;2023-07-09T10:06:51;100137.00;;;22.27;77.83
73453;BME280;61687;56.232;43.854;2023-07-09T10:09:47;100137.09;;;22.36;77.80
73453;BME280;61687;56.232;43.854;2023-07-09T10:14:50;100132.00;;;22.22;77.59
73453;BME280;61687;56.232;43.854;2023-07-09T10:22:59;100119.59;;;22.00;77.69
73453;BME280;61687;56.232;43.854;2023-07-09T10:39:32;100126.69;;;22.14;77.89
73453;BME280;61687;56.232;43.854;2023-07-09T10:42:00;100127.47;;;22.15;77.65
73453;BME280;61687;56.232;43.854;2023-07-09T10:44:34;100118.81;;;22.00;78.18
73453;BME280;61687;56.232;43.854;2023-07-09T10:47:09;100123.41;;;21.94;78.59
73453;BME280;61687;56.232;43.854;2023-07-09T10:49:40;100122.94;;;21.95;78.97
73453;BME280;61687;56.232;43.854;2023-07-09T10:52:28;100128.41;;;21.99;78.74
73453;BME280;61687;56.232;43.854;2023-07-09T10:55:17;100123.16;;;22.01;78.80
73453;BME280;61687;56.232;43.854;2023-07-09T10:57:54;100122.56;;;22.06;78.49
73453;BME280;61687;56.232;43.854;2023-07-09T11:00:27;100127.06;;;22.04;78.53
73453;BME280;61687;56.232;43.854;2023-07-09T11:03:05;100123.47;;;22.03;78.65
73453;BME280;61687;56.232;43.854;2023-07-09T11:05:37;100113.44;;;22.06;78.42
73453;BME280;61687;56.232;43.854;2023-07-09T11:26:48;100110.97;;;21.72;78.61
73453;BME280;61687;56.232;43.854;2023-07-09T11:29:17;100118.31;;;21.79;79.63
73453;BME280;61687;56.232;43.854;2023-07-09T11:31:46;100112.03;;;21.88;79.71
73453;BME280;61687;56.232;43.854;2023-07-09T11:39:22;100114.50;;;22.21;78.61
73453;BME280;61687;56.232;43.854;2023-07-09T11:41:52;100117.66;;;22.33;78.21
73453;BME280;61687;56.232;43.854;2023-07-09T11:44:26;100110.94;;;22.43;77.73
73453;BME280;61687;56.232;43.854;2023-07-09T11:47:33;100099.53;;;22.50;77.54
73453;BME280;61687;56.232;43.854;2023-07-09T11:50:05;100104.50;;;22.55;77.09
73453;BME280;61687;56.232;43.854;2023-07-09T11:52:43;100107.31;;;22.55;77.30
73453;BME280;61687;56.232;43.854;2023-07-09T11:55:22;100107.94;;;22.59;77.46
73453;BME280;61687;56.232;43.854;2023-07-09T11:57:59;100116.66;;;22.62;77.36
73453;BME280;61687;56.232;43.854;2023-07-09T12:00:28;100113.41;;;22.63;77.38
73453;BME280;61687;56.232;43.854;2023-07-09T12:02:56;100109.66;;;22.57;77.15
73453;BME280;61687;56.232;43.854;2023-07-09T12:05:27;100109.00;;;22.53;77.50
73453;BME280;61687;56.232;43.854;2023-07-09T12:07:55;100105.91;;;22.51;77.62
73453;BME280;61687;56.232;43.854;2023-07-09T12:10:25;100107.56;;;22.48;77.94
73453;BME280;61687;56.232;43.854;2023-07-09T12:12:57;100112.38;;;22.48;77.91
73453;BME280;61687;56.232;43.854;2023-07-09T12:15:25;100121.97;;;22.47;77.94
73453;BME280;61687;56.232;43.854;2023-07-09T12:17:54;100122.09;;;22.43;78.17
73453;BME280;61687;56.232;43.854;2023-07-09T12:20:20;100101.44;;;22.40;78.32
73453;BME280;61687;56.232;43.854;2023-07-09T12:22:46;100065.28;;;22.37;78.39
73453;BME280;61687;56.232;43.854;2023-07-09T12:25:26;100041.84;;;22.34;78.40
73453;BME280;61687;56.232;43.854;2023-07-09T12:27:53;100015.63;;;22.32;78.37
73453;BME280;61687;56.232;43.854;2023-07-09T12:30:19;100007.88;;;22.36;77.71
73453;BME280;61687;56.232;43.854;2023-07-09T12:32:47;100023.59;;;22.42;77.53
73453;BME280;61687;56.232;43.854;2023-07-09T12:35:16;100028.59;;;22.48;77.14
73453;BME280;61687;56.232;43.854;2023-07-09T12:37:44;100022.13;;;22.51;76.69
73453;BME280;61687;56.232;43.854;2023-07-09T12:40:16;100006.94;;;22.29;76.97
73453;BME280;61687;56.232;43.854;2023-07-09T12:42:43;99997.00;;;22.28;77.46
73453;BME280;61687;56.232;43.854;2023-07-09T12:45:17;99985.22;;;22.34;77.61
73453;BME280;61687;56.232;43.854;2023-07-09T12:47:45;99976.13;;;22.42;77.26
73453;BME280;61687;56.232;43.854;2023-07-09T12:50:37;99972.09;;;22.43;77.00
73453;BME280;61687;56.232;43.854;2023-07-09T12:53:16;99973.25;;;22.24;77.00
73453;BME280;61687;56.232;43.854;2023-07-09T12:55:45;99971.66;;;22.13;77.28
73453;BME280;61687;56.232;43.854;2023-07-09T12:58:19;99961.94;;;21.96;77.84
73453;BME280;61687;56.232;43.854;2023-07-09T13:00:50;99969.13;;;21.84;78.47
73453;BME280;61687;56.232;43.854;2023-07-09T13:34:22;99972.38;;;20.21;84.45
73453;BME280;61687;56.232;43.854;2023-07-09T13:36:49;99960.81;;;20.36;85.46
73453;BME280;61687;56.232;43.854;2023-07-09T13:39:16;99953.34;;;20.33;85.35
73453;BME280;61687;56.232;43.854;2023-07-09T13:41:46;99944.34;;;20.54;85.20
73453;BME280;61687;56.232;43.854;2023-07-09T13:44:15;99932.19;;;20.74;84.70
73453;BME280;61687;56.232;43.854;2023-07-09T13:46:42;99917.59;;;20.96;83.94
73453;BME280;61687;56.232;43.854;2023-07-09T13:49:13;99913.66;;;21.06;82.77
73453;BME280;61687;56.232;43.854;2023-07-09T13:51:41;99898.91;;;21.19;82.45
73453;BME280;61687;56.232;43.854;2023-07-09T13:54:24;99885.63;;;21.23;81.82
73453;BME280;61687;56.232;43.854;2023-07-09T13:56:50;99877.97;;;21.14;81.74
73453;BME280;61687;56.232;43.854;2023-07-09T13:59:19;99881.88;;;21.16;81.75
73453;BME280;61687;56.232;43.854;2023-07-09T14:01:46;99877.38;;;21.19;81.70
73453;BME280;61687;56.232;43.854;2023-07-09T14:04:13;99881.28;;;21.22;81.35
73453;BME280;61687;56.232;43.854;2023-07-09T14:06:40;99898.91;;;21.19;81.25
73453;BME280;61687;56.232;43.854;2023-07-09T14:09:08;99909.25;;;21.18;81.38
73453;BME280;61687;56.232;43.854;2023-07-09T14:11:38;99911.06;;;21.12;81.51
73453;BME280;61687;56.232;43.854;2023-07-09T14:14:17;99925.47;;;20.97;81.16